Time,TemperatureF,DewpointF,PressureIn,WindDirection,WindDirectionDegrees,WindSpeedMPH,WindSpeedGustMPH,Humidity,HourlyPrecipIn,Conditions,Clouds,dailyrainin,SoftwareType,DateUTC
2013-01-09 00:12:00,41.0,36.0,-100.00,WSW,240,7.0,7.0,83,-99.99,,,-99.99,,2013-01-09 05:12:00,
2013-01-09 00:22:00,41.0,36.0,-100.00,WSW,240,7.0,7.0,83,-99.99,,,-99.99,,2013-01-09 05:22:00,
2013-01-09 00:32:00,41.0,36.0,-100.00,WSW,240,7.0,7.0,83,-99.99,,,-99.99,,2013-01-09 05:32:00,
2013-01-09 00:42:00,41.0,36.0,-100.00,WSW,240,7.0,7.0,80,-99.99,,,-99.99,,2013-01-09 05:42:00,
2013-01-09 00:52:00,41.0,36.0,-100.00,WSW,240,7.0,7.0,80,-99.99,,,-99.99,,2013-01-09 05:52:00,
2013-01-09 01:02:00,41.0,36.0,-100.00,WSW,240,7.0,7.0,80,-99.99,,,-99.99,,2013-01-09 06:02:00,
2013-01-09 01:11:00,41.0,36.0,-100.00,WSW,240,7.0,7.0,80,-99.99,,,-99.99,,2013-01-09 06:11:00,
2013-01-09 01:22:00,41.0,35.0,-100.00,SW,230,7.0,9.0,81,-99.99,,,-99.99,,2013-01-09 06:22:00,
2013-01-09 01:52:00,40.0,35.0,-100.00,SW,230,7.0,7.0,80,-99.99,,,-99.99,,2013-01-09 06:52:00,
2013-01-09 02:11:00,40.0,35.0,-100.00,WSW,240,4.0,7.0,80,-99.99,,,-99.99,,2013-01-09 07:11:00,
2013-01-09 02:22:00,40.0,35.0,-100.00,WSW,240,4.0,7.0,80,-99.99,,,-99.99,,2013-01-09 07:22:00,
2013-01-09 02:32:00,40.0,35.0,-100.00,WSW,240,4.0,7.0,80,-99.99,,,-99.99,,2013-01-09 07:32:00,
2013-01-09 02:52:00,40.0,35.0,-100.00,West,280,4.0,4.0,83,-99.99,,,-99.99,,2013-01-09 07:52:00,
2013-01-09 03:11:00,39.0,35.0,-100.00,NW,310,4.0,4.0,84,-99.99,,,-99.99,,2013-01-09 08:11:00,
2013-01-09 03:22:00,39.0,35.0,-100.00,NW,310,4.0,4.0,84,-99.99,,,-99.99,,2013-01-09 08:22:00,
2013-01-09 03:32:00,39.0,35.0,-100.00,NW,310,4.0,4.0,84,-99.99,,,-99.99,,2013-01-09 08:32:00,
2013-01-09 03:52:00,39.0,33.0,-100.00,NW,320,4.0,4.0,81,-99.99,,,-99.99,,2013-01-09 08:52:00,
2013-01-09 04:02:00,39.0,33.0,-100.00,NW,320,4.0,4.0,81,-99.99,,,-99.99,,2013-01-09 09:02:00,
2013-01-09 04:11:00,38.0,33.0,-100.00,NNW,330,2.0,2.0,80,-99.99,,,-99.99,,2013-01-09 09:11:00,
2013-01-09 04:22:00,38.0,33.0,-100.00,NNW,330,2.0,2.0,80,-99.99,,,-99.99,,2013-01-09 09:22:00,
2013-01-09 04:42:00,38.0,33.0,-100.00,NNW,330,2.0,2.0,80,-99.99,,,-99.99,,2013-01-09 09:42:00,
2013-01-09 04:52:00,38.0,33.0,-100.00,NE,40,2.0,2.0,83,-99.99,,,-99.99,,2013-01-09 09:52:00,
2013-01-09 05:01:00,38.0,33.0,-100.00,NE,40,2.0,2.0,83,-99.99,,,-99.99,,2013-01-09 10:01:00,
2013-01-09 05:11:00,38.0,33.0,-100.00,North,10,2.0,2.0,83,-99.99,,,-99.99,,2013-01-09 10:11:00,
2013-01-09 05:22:00,38.0,33.0,-100.00,North,10,2.0,2.0,83,-99.99,,,-99.99,,2013-01-09 10:22:00,
2013-01-09 05:32:00,38.0,33.0,-100.00,North,10,2.0,2.0,83,-99.99,,,-99.99,,2013-01-09 10:32:00,
2013-01-09 05:52:00,38.0,33.0,-100.00,North,0,0.0,2.0,83,-99.99,,,-99.99,,2013-01-09 10:52:00,
2013-01-09 06:02:00,38.0,33.0,-100.00,North,0,0.0,2.0,83,-99.99,,,-99.99,,2013-01-09 11:02:00,
2013-01-09 06:11:00,37.0,34.0,-100.00,ESE,120,2.0,2.0,87,-99.99,,,-99.99,,2013-01-09 11:11:00,
2013-01-09 06:22:00,37.0,34.0,-100.00,ESE,120,2.0,2.0,87,-99.99,,,-99.99,,2013-01-09 11:22:00,
2013-01-09 06:32:00,37.0,34.0,-100.00,ESE,120,2.0,2.0,87,-99.99,,,-99.99,,2013-01-09 11:32:00,
2013-01-09 06:52:00,38.0,34.0,-100.00,ENE,60,2.0,4.0,87,-99.99,,,-99.99,,2013-01-09 11:52:00,
2013-01-09 07:22:00,38.0,35.0,-100.00,ENE,60,2.0,4.0,87,-99.99,,,-99.99,,2013-01-09 12:22:00,
2013-01-09 07:32:00,37.0,34.0,-100.00,East,90,4.0,4.0,88,-99.99,,,-99.99,,2013-01-09 12:32:00,
2013-01-09 07:52:00,37.0,34.0,-100.00,ENE,60,4.0,4.0,87,-99.99,,,-99.99,,2013-01-09 12:52:00,
2013-01-09 08:02:00,37.0,34.0,-100.00,ENE,60,4.0,4.0,87,-99.99,,,-99.99,,2013-01-09 13:02:00,
2013-01-09 08:11:00,37.0,33.0,-100.00,NNE,20,4.0,7.0,87,-99.99,,,-99.99,,2013-01-09 13:11:00,
2013-01-09 08:22:00,37.0,33.0,-100.00,NNE,20,4.0,7.0,87,-99.99,,,-99.99,,2013-01-09 13:22:00,
2013-01-09 08:32:00,37.0,33.0,-100.00,NNE,20,4.0,7.0,87,-99.99,,,-99.99,,2013-01-09 13:32:00,
2013-01-09 08:42:00,37.0,33.0,-100.00,ENE,60,4.0,7.0,87,-99.99,,,-99.99,,2013-01-09 13:42:00,
2013-01-09 08:52:00,37.0,33.0,-100.00,ENE,60,4.0,7.0,87,-99.99,,,-99.99,,2013-01-09 13:52:00,
2013-01-09 09:02:00,37.0,33.0,-100.00,ENE,60,4.0,7.0,87,-99.99,,,-99.99,,2013-01-09 14:02:00,
2013-01-09 09:11:00,37.0,35.0,-100.00,ESE,120,4.0,4.0,89,-99.99,,,-99.99,,2013-01-09 14:11:00,
2013-01-09 09:22:00,37.0,35.0,-100.00,ESE,120,4.0,4.0,89,-99.99,,,-99.99,,2013-01-09 14:22:00,
2013-01-09 09:32:00,37.0,35.0,-100.00,ESE,120,4.0,4.0,89,-99.99,,,-99.99,,2013-01-09 14:32:00,
2013-01-09 09:52:00,37.0,34.0,-100.00,South,190,2.0,2.0,89,-99.99,,,-99.99,,2013-01-09 14:52:00,
2013-01-09 10:12:00,38.0,35.0,-100.00,SW,230,2.0,2.0,87,-99.99,,,-99.99,,2013-01-09 15:12:00,
2013-01-09 10:22:00,38.0,35.0,-100.00,SW,230,2.0,2.0,87,-99.99,,,-99.99,,2013-01-09 15:22:00,
2013-01-09 10:32:00,38.0,35.0,-100.00,SW,230,2.0,2.0,87,-99.99,,,-99.99,,2013-01-09 15:32:00,
2013-01-09 10:42:00,38.0,35.0,-100.00,SW,230,2.0,2.0,87,-99.99,,,-99.99,,2013-01-09 15:42:00,
2013-01-09 10:52:00,38.0,34.0,-100.00,NNW,330,2.0,4.0,86,-99.99,,,-99.99,,2013-01-09 15:52:00,
2013-01-09 11:02:00,38.0,34.0,-100.00,NNW,330,2.0,4.0,86,-99.99,,,-99.99,,2013-01-09 16:02:00,
2013-01-09 11:11:00,38.0,34.0,-100.00,NNE,30,4.0,4.0,84,-99.99,,,-99.99,,2013-01-09 16:11:00,
2013-01-09 11:22:00,38.0,34.0,-100.00,NNE,30,4.0,4.0,84,-99.99,,,-99.99,,2013-01-09 16:22:00,
2013-01-09 11:32:00,38.0,34.0,-100.00,NNE,30,4.0,4.0,84,-99.99,,,-99.99,,2013-01-09 16:32:00,
2013-01-09 11:42:00,38.0,34.0,-100.00,NNE,30,4.0,4.0,84,-99.99,,,-99.99,,2013-01-09 16:42:00,
2013-01-09 11:52:00,38.0,35.0,-100.00,NE,40,7.0,7.0,86,-99.99,,,-99.99,,2013-01-09 16:52:00,
2013-01-09 12:02:00,38.0,35.0,-100.00,NE,40,7.0,7.0,86,-99.99,,,-99.99,,2013-01-09 17:02:00,
2013-01-09 12:11:00,39.0,35.0,-100.00,ENE,70,2.0,4.0,87,-99.99,,,-99.99,,2013-01-09 17:11:00,
2013-01-09 12:22:00,39.0,35.0,-100.00,ENE,70,2.0,4.0,87,-99.99,,,-99.99,,2013-01-09 17:22:00,
2013-01-09 12:32:00,39.0,35.0,-100.00,ENE,70,2.0,4.0,87,-99.99,,,-99.99,,2013-01-09 17:32:00,
2013-01-09 12:42:00,39.0,35.0,-100.00,ENE,70,2.0,4.0,87,-99.99,,,-99.99,,2013-01-09 17:42:00,
2013-01-09 12:52:00,39.0,35.0,-100.00,NW,320,2.0,4.0,86,-99.99,,,-99.99,,2013-01-09 17:52:00,
2013-01-09 13:02:00,39.0,35.0,-100.00,NW,320,2.0,4.0,86,-99.99,,,-99.99,,2013-01-09 18:02:00,
2013-01-09 13:12:00,39.0,35.0,-100.00,North,0,0.0,4.0,85,-99.99,,,-99.99,,2013-01-09 18:12:00,
2013-01-09 13:23:00,39.0,35.0,-100.00,North,0,0.0,4.0,85,-99.99,,,-99.99,,2013-01-09 18:23:00,
2013-01-09 13:32:00,39.0,35.0,-100.00,North,0,0.0,4.0,85,-99.99,,,-99.99,,2013-01-09 18:32:00,
2013-01-09 13:42:00,39.0,35.0,-100.00,North,0,0.0,4.0,85,-99.99,,,-99.99,,2013-01-09 18:42:00,
2013-01-09 13:52:00,40.0,36.0,-100.00,North,0,0.0,2.0,86,-99.99,,,-99.99,,2013-01-09 18:52:00,
2013-01-09 14:00:00,41.0,37.0,-100.00,NW,310,4.0,4.0,85,-99.99,,,-99.99,,2013-01-09 19:00:00,
2013-01-09 14:02:00,40.0,36.0,-100.00,North,0,0.0,2.0,86,-99.99,,,-99.99,,2013-01-09 19:02:00,
2013-01-09 14:12:00,40.0,36.0,-100.00,NNW,330,4.0,4.0,86,-99.99,,,-99.99,,2013-01-09 19:12:00,
2013-01-09 14:22:00,40.0,36.0,-100.00,NNW,330,4.0,4.0,86,-99.99,,,-99.99,,2013-01-09 19:22:00,
2013-01-09 14:32:00,40.0,36.0,-100.00,NNW,330,4.0,4.0,86,-99.99,,,-99.99,,2013-01-09 19:32:00,
2013-01-09 14:42:00,40.0,36.0,-100.00,NNW,330,4.0,4.0,86,-99.99,,,-99.99,,2013-01-09 19:42:00,
2013-01-09 14:52:00,41.0,37.0,-100.00,NW,310,4.0,4.0,85,-99.99,,,-99.99,,2013-01-09 19:52:00,
2013-01-09 15:11:00,41.0,37.0,-100.00,WSW,250,4.0,4.0,84,-99.99,,,-99.99,,2013-01-09 20:11:00,
2013-01-09 15:32:00,42.0,38.0,-100.00,SSE,160,9.0,13.0,86,-99.99,,,-99.99,,2013-01-09 20:32:00,
2013-01-09 15:42:00,42.0,38.0,-100.00,SSE,160,9.0,13.0,86,-99.99,,,-99.99,,2013-01-09 20:42:00,
2013-01-09 16:32:00,45.0,37.0,-100.00,SW,230,9.0,11.0,73,-99.99,,,-99.99,,2013-01-09 21:32:00,
2013-01-09 16:42:00,44.0,38.0,-100.00,SW,230,9.0,11.0,79,-99.99,,,-99.99,,2013-01-09 21:42:00,
2013-01-09 16:52:00,44.0,38.0,-100.00,SW,230,9.0,11.0,79,-99.99,,,-99.99,,2013-01-09 21:52:00,
2013-01-09 17:02:00,44.0,38.0,-100.00,SW,230,9.0,11.0,79,-99.99,,,-99.99,,2013-01-09 22:02:00,
2013-01-09 17:12:00,44.0,38.0,-100.00,SSW,200,9.0,11.0,78,-99.99,,,-99.99,,2013-01-09 22:12:00,
2013-01-09 17:22:00,44.0,38.0,-100.00,SSW,200,9.0,11.0,78,-99.99,,,-99.99,,2013-01-09 22:22:00,
2013-01-09 17:32:00,44.0,38.0,-100.00,SSW,200,9.0,11.0,78,-99.99,,,-99.99,,2013-01-09 22:32:00,
2013-01-09 17:42:00,44.0,38.0,-100.00,SW,220,7.0,9.0,81,-99.99,,,-99.99,,2013-01-09 22:42:00,
2013-01-09 17:52:00,44.0,38.0,-100.00,SW,220,7.0,9.0,81,-99.99,,,-99.99,,2013-01-09 22:52:00,
2013-01-09 18:02:00,44.0,38.0,-100.00,SW,220,7.0,9.0,81,-99.99,,,-99.99,,2013-01-09 23:02:00,
2013-01-09 18:12:00,44.0,39.0,-100.00,WSW,240,9.0,18.0,85,-99.99,,,-99.99,,2013-01-09 23:12:00,
2013-01-09 18:22:00,44.0,39.0,-100.00,WSW,240,9.0,18.0,85,-99.99,,,-99.99,,2013-01-09 23:22:00,
2013-01-09 18:32:00,44.0,39.0,-100.00,WSW,240,9.0,18.0,85,-99.99,,,-99.99,,2013-01-09 23:32:00,
2013-01-09 18:42:00,46.0,39.0,-100.00,SW,220,13.0,16.0,77,-99.99,,,-99.99,,2013-01-09 23:42:00,
2013-01-09 18:52:00,46.0,39.0,-100.00,SW,220,13.0,16.0,77,-99.99,,,-99.99,,2013-01-09 23:52:00,
2013-01-09 19:02:00,46.0,39.0,-100.00,SW,220,13.0,16.0,77,-99.99,,,-99.99,,2013-01-10 00:02:00,
2013-01-09 19:12:00,46.0,39.0,-100.00,SW,230,16.0,18.0,76,-99.99,,,-99.99,,2013-01-10 00:12:00,
2013-01-09 19:22:00,46.0,39.0,-100.00,SW,230,16.0,18.0,76,-99.99,,,-99.99,,2013-01-10 00:22:00,
2013-01-09 19:32:00,46.0,39.0,-100.00,SW,230,16.0,18.0,76,-99.99,,,-99.99,,2013-01-10 00:32:00,
2013-01-09 19:42:00,46.0,39.0,-100.00,SW,230,16.0,18.0,76,-99.99,,,-99.99,,2013-01-10 00:42:00,
2013-01-09 19:52:00,46.0,39.0,-100.00,WSW,240,16.0,18.0,75,-99.99,,,-99.99,,2013-01-10 00:52:00,
2013-01-09 20:02:00,46.0,39.0,-100.00,WSW,240,16.0,18.0,75,-99.99,,,-99.99,,2013-01-10 01:02:00,
2013-01-09 20:11:00,46.0,38.0,-100.00,WSW,240,16.0,20.0,73,-99.99,,,-99.99,,2013-01-10 01:11:00,
2013-01-09 20:22:00,46.0,38.0,-100.00,WSW,240,16.0,20.0,73,-99.99,,,-99.99,,2013-01-10 01:22:00,
2013-01-09 20:32:00,46.0,38.0,-100.00,WSW,240,16.0,20.0,73,-99.99,,,-99.99,,2013-01-10 01:32:00,
2013-01-09 20:42:00,46.0,38.0,-100.00,WSW,240,16.0,20.0,73,-99.99,,,-99.99,,2013-01-10 01:42:00,
2013-01-09 20:52:00,47.0,38.0,-100.00,WSW,250,18.0,22.0,72,-99.99,,,-99.99,,2013-01-10 01:52:00,
2013-01-09 21:02:00,47.0,38.0,-100.00,WSW,250,18.0,22.0,72,-99.99,,,-99.99,,2013-01-10 02:02:00,
2013-01-09 21:12:00,47.0,38.0,-100.00,WSW,250,18.0,22.0,72,-99.99,,,-99.99,,2013-01-10 02:12:00,
2013-01-09 21:22:00,47.0,38.0,-100.00,WSW,250,18.0,22.0,71,-99.99,,,-99.99,,2013-01-10 02:22:00,
2013-01-09 21:32:00,47.0,38.0,-100.00,WSW,250,18.0,22.0,71,-99.99,,,-99.99,,2013-01-10 02:32:00,
2013-01-09 21:42:00,47.0,38.0,-100.00,WSW,250,18.0,22.0,71,-99.99,,,-99.99,,2013-01-10 02:42:00,
2013-01-09 22:02:00,46.0,38.0,-100.00,WSW,250,16.0,18.0,73,-99.99,,,-99.99,,2013-01-10 03:02:00,
2013-01-09 22:11:00,46.0,38.0,-100.00,WSW,240,18.0,22.0,71,-99.99,,,-99.99,,2013-01-10 03:11:00,
2013-01-09 22:22:00,46.0,38.0,-100.00,WSW,240,18.0,22.0,71,-99.99,,,-99.99,,2013-01-10 03:22:00,
2013-01-09 22:32:00,46.0,38.0,-100.00,WSW,240,18.0,22.0,71,-99.99,,,-99.99,,2013-01-10 03:32:00,
2013-01-09 22:42:00,46.0,37.0,-100.00,WSW,240,18.0,22.0,70,-99.99,,,-99.99,,2013-01-10 03:42:00,
2013-01-09 22:52:00,46.0,37.0,-100.00,WSW,240,18.0,22.0,70,-99.99,,,-99.99,,2013-01-10 03:52:00,
2013-01-09 23:02:00,46.0,37.0,-100.00,WSW,240,18.0,22.0,70,-99.99,,,-99.99,,2013-01-10 04:02:00,
2013-01-09 23:11:00,46.0,37.0,-100.00,WSW,240,18.0,22.0,70,-99.99,,,-99.99,,2013-01-10 04:11:00,
2013-01-09 23:22:00,46.0,37.0,-100.00,WSW,240,18.0,20.0,70,-99.99,,,-99.99,,2013-01-10 04:22:00,
2013-01-09 23:32:00,46.0,37.0,-100.00,WSW,240,18.0,20.0,70,-99.99,,,-99.99,,2013-01-10 04:32:00,
2013-01-09 23:42:00,45.0,37.0,-100.00,WSW,240,16.0,22.0,71,-99.99,,,-99.99,,2013-01-10 04:42:00,
2013-01-09 23:52:00,45.0,37.0,-100.00,WSW,240,16.0,22.0,71,-99.99,,,-99.99,,2013-01-10 04:52:00,